LYN YCOI-YPJT
Flight info
| Callsign | LYN |
|---|---|
| Flight time | 0h 45m |
| Altitude | 6000 |
| Route | DCT |
| Aircraft | C182/L-FGORVZ/L |
Departure
| Time | 2026-05-05 08:11 |
|---|---|
| Airport | Collie Airport (YCOI) |
Arrival
| Time | 2026-05-05 08:56 |
|---|---|
| Airport | Perth Jandakot Airport (YPJT) |
| Time | Latitude | Longitude | Altitude | Speed | Heading |
|---|---|---|---|---|---|
| 2026-05-05 07:59 | -33.35868 | 116.19594 | 756 ft | 0 kts | 189° |
| 2026-05-05 08:05 | -33.35871 | 116.19594 | 758 ft | 3 kts | 155° |
| 2026-05-05 08:05 | -33.35875 | 116.19603 | 754 ft | 0 kts | 93° |
| 2026-05-05 08:07 | -33.35886 | 116.19631 | 758 ft | 8 kts | 145° |
| 2026-05-05 08:07 | -33.35913 | 116.19689 | 763 ft | 10 kts | 98° |
| 2026-05-05 08:08 | -33.35927 | 116.19795 | 768 ft | 16 kts | 97° |
| 2026-05-05 08:08 | -33.35942 | 116.19945 | 774 ft | 20 kts | 97° |
| 2026-05-05 08:08 | -33.35960 | 116.20113 | 780 ft | 21 kts | 98° |
| 2026-05-05 08:08 | -33.35979 | 116.20287 | 784 ft | 21 kts | 98° |
| 2026-05-05 08:09 | -33.36002 | 116.20462 | 787 ft | 21 kts | 92° |
| 2026-05-05 08:09 | -33.36017 | 116.20620 | 793 ft | 14 kts | 96° |
| 2026-05-05 08:09 | -33.36030 | 116.20687 | 795 ft | 6 kts | 216° |
| 2026-05-05 08:09 | -33.36033 | 116.20671 | 795 ft | 0 kts | 277° |
| 2026-05-05 08:10 | -33.36010 | 116.20476 | 788 ft | 52 kts | 278° |
| 2026-05-05 08:10 | -33.35943 | 116.19880 | 839 ft | 85 kts | 278° |
| 2026-05-05 08:10 | -33.35845 | 116.19163 | 1091 ft | 89 kts | 278° |
| 2026-05-05 08:11 | -33.35756 | 116.18444 | 1408 ft | 85 kts | 274° |
| 2026-05-05 08:11 | -33.35952 | 116.17802 | 1715 ft | 84 kts | 224° |
| 2026-05-05 08:11 | -33.36500 | 116.17614 | 1986 ft | 89 kts | 168° |
| 2026-05-05 08:11 | -33.36962 | 116.18084 | 2277 ft | 91 kts | 112° |
| 2026-05-05 08:12 | -33.37085 | 116.18819 | 2555 ft | 90 kts | 99° |
| 2026-05-05 08:12 | -33.37051 | 116.19535 | 2831 ft | 88 kts | 62° |
| 2026-05-05 08:12 | -33.36575 | 116.19926 | 3065 ft | 87 kts | 1° |
| 2026-05-05 08:12 | -33.35996 | 116.19819 | 3332 ft | 85 kts | 343° |
| 2026-05-05 08:13 | -33.35394 | 116.19766 | 3560 ft | 91 kts | 12° |
| 2026-05-05 08:13 | -33.34775 | 116.19702 | 3825 ft | 90 kts | 346° |
| 2026-05-05 08:13 | -33.34156 | 116.19573 | 4101 ft | 90 kts | 346° |
| 2026-05-05 08:13 | -33.33547 | 116.19432 | 4373 ft | 90 kts | 345° |
| 2026-05-05 08:14 | -33.32930 | 116.19282 | 4657 ft | 90 kts | 345° |
| 2026-05-05 08:14 | -33.32311 | 116.19128 | 4936 ft | 90 kts | 345° |
| 2026-05-05 08:14 | -33.31694 | 116.18972 | 5204 ft | 90 kts | 345° |
| 2026-05-05 08:14 | -33.31081 | 116.18816 | 5472 ft | 91 kts | 345° |
| 2026-05-05 08:15 | -33.30461 | 116.18658 | 5746 ft | 91 kts | 344° |
| 2026-05-05 08:15 | -33.29845 | 116.18501 | 5992 ft | 94 kts | 345° |
| 2026-05-05 08:15 | -33.29112 | 116.18312 | 6016 ft | 118 kts | 346° |
| 2026-05-05 08:15 | -33.28269 | 116.18098 | 6014 ft | 128 kts | 346° |
| 2026-05-05 08:16 | -33.27392 | 116.17876 | 6009 ft | 128 kts | 346° |
| 2026-05-05 08:16 | -33.26532 | 116.17656 | 6008 ft | 128 kts | 346° |
| 2026-05-05 08:16 | -33.25654 | 116.17432 | 6006 ft | 129 kts | 346° |
| 2026-05-05 08:16 | -33.24787 | 116.17210 | 6009 ft | 129 kts | 346° |
| 2026-05-05 08:17 | -33.23900 | 116.16982 | 6009 ft | 130 kts | 346° |
| 2026-05-05 08:17 | -33.23025 | 116.16758 | 6010 ft | 129 kts | 346° |
| 2026-05-05 08:17 | -33.22141 | 116.16532 | 6009 ft | 129 kts | 346° |
| 2026-05-05 08:17 | -33.21256 | 116.16305 | 6009 ft | 129 kts | 346° |
| 2026-05-05 08:18 | -33.20382 | 116.16081 | 6009 ft | 129 kts | 346° |
| 2026-05-05 08:18 | -33.19497 | 116.15855 | 6009 ft | 129 kts | 346° |
| 2026-05-05 08:18 | -33.18626 | 116.15632 | 6010 ft | 130 kts | 346° |
| 2026-05-05 08:18 | -33.17739 | 116.15405 | 6009 ft | 129 kts | 346° |
| 2026-05-05 08:19 | -33.16855 | 116.15178 | 6009 ft | 129 kts | 346° |
| 2026-05-05 08:19 | -33.15984 | 116.14956 | 6009 ft | 129 kts | 346° |
| 2026-05-05 08:19 | -33.15099 | 116.14729 | 6009 ft | 129 kts | 346° |
| 2026-05-05 08:19 | -33.14224 | 116.14505 | 6010 ft | 129 kts | 346° |
| 2026-05-05 08:20 | -33.13339 | 116.14279 | 6008 ft | 130 kts | 346° |
| 2026-05-05 08:20 | -33.12452 | 116.14053 | 6010 ft | 130 kts | 346° |
| 2026-05-05 08:20 | -33.11562 | 116.13825 | 6008 ft | 130 kts | 346° |
| 2026-05-05 08:20 | -33.10685 | 116.13601 | 6008 ft | 130 kts | 346° |
| 2026-05-05 08:21 | -33.09796 | 116.13374 | 6007 ft | 130 kts | 346° |
| 2026-05-05 08:21 | -33.08923 | 116.13151 | 6005 ft | 130 kts | 346° |
| 2026-05-05 08:21 | -33.08038 | 116.12925 | 6006 ft | 130 kts | 346° |
| 2026-05-05 08:21 | -33.07150 | 116.12698 | 6006 ft | 129 kts | 346° |
| 2026-05-05 08:22 | -33.06279 | 116.12476 | 6005 ft | 129 kts | 346° |
| 2026-05-05 08:22 | -33.05394 | 116.12250 | 6005 ft | 129 kts | 346° |
| 2026-05-05 08:22 | -33.04522 | 116.12028 | 6006 ft | 129 kts | 346° |
| 2026-05-05 08:22 | -33.03638 | 116.11802 | 6006 ft | 129 kts | 346° |
| 2026-05-05 08:23 | -33.02764 | 116.11579 | 6004 ft | 129 kts | 346° |
| 2026-05-05 08:23 | -33.01879 | 116.11354 | 6006 ft | 130 kts | 346° |
| 2026-05-05 08:23 | -33.00993 | 116.11128 | 6006 ft | 129 kts | 346° |
| 2026-05-05 08:23 | -33.00122 | 116.10906 | 6006 ft | 129 kts | 346° |
| 2026-05-05 08:24 | -32.99241 | 116.10681 | 6006 ft | 129 kts | 346° |
| 2026-05-05 08:24 | -32.98356 | 116.10456 | 6006 ft | 129 kts | 346° |
| 2026-05-05 08:24 | -32.97484 | 116.10233 | 6004 ft | 129 kts | 346° |
| 2026-05-05 08:24 | -32.96599 | 116.10008 | 6006 ft | 129 kts | 346° |
| 2026-05-05 08:25 | -32.95716 | 116.09783 | 6007 ft | 130 kts | 346° |
| 2026-05-05 08:25 | -32.94829 | 116.09558 | 6007 ft | 130 kts | 346° |
| 2026-05-05 08:25 | -32.93954 | 116.09335 | 6007 ft | 130 kts | 346° |
| 2026-05-05 08:25 | -32.93067 | 116.09109 | 6007 ft | 130 kts | 346° |
| 2026-05-05 08:26 | -32.92179 | 116.08883 | 6006 ft | 130 kts | 346° |
| 2026-05-05 08:26 | -32.91300 | 116.08660 | 6008 ft | 130 kts | 346° |
| 2026-05-05 08:26 | -32.90410 | 116.08433 | 6008 ft | 130 kts | 346° |
| 2026-05-05 08:26 | -32.89525 | 116.08208 | 6008 ft | 129 kts | 346° |
| 2026-05-05 08:27 | -32.88650 | 116.07986 | 6006 ft | 130 kts | 346° |
| 2026-05-05 08:27 | -32.87760 | 116.07760 | 6010 ft | 131 kts | 346° |
| 2026-05-05 08:27 | -32.86866 | 116.07532 | 6009 ft | 131 kts | 346° |
| 2026-05-05 08:27 | -32.85980 | 116.07307 | 6009 ft | 130 kts | 346° |
| 2026-05-05 08:28 | -32.85100 | 116.07084 | 6009 ft | 130 kts | 346° |
| 2026-05-05 08:28 | -32.84212 | 116.06858 | 6008 ft | 130 kts | 346° |
| 2026-05-05 08:28 | -32.83338 | 116.06637 | 6007 ft | 130 kts | 346° |
| 2026-05-05 08:28 | -32.82454 | 116.06412 | 6007 ft | 130 kts | 346° |
| 2026-05-05 08:29 | -32.81569 | 116.06188 | 6007 ft | 129 kts | 346° |
| 2026-05-05 08:29 | -32.80687 | 116.05964 | 6006 ft | 129 kts | 346° |
| 2026-05-05 08:29 | -32.79817 | 116.05743 | 6005 ft | 129 kts | 346° |
| 2026-05-05 08:30 | -32.78069 | 116.05300 | 6004 ft | 129 kts | 346° |
| 2026-05-05 08:30 | -32.77191 | 116.05077 | 6005 ft | 129 kts | 346° |
| 2026-05-05 08:30 | -32.76311 | 116.04854 | 6005 ft | 130 kts | 346° |
| 2026-05-05 08:30 | -32.75434 | 116.04632 | 6007 ft | 130 kts | 346° |
| 2026-05-05 08:31 | -32.74550 | 116.04408 | 6007 ft | 129 kts | 346° |
| 2026-05-05 08:31 | -32.73667 | 116.04184 | 6007 ft | 129 kts | 346° |
| 2026-05-05 08:31 | -32.72784 | 116.03961 | 6007 ft | 129 kts | 346° |
| 2026-05-05 08:31 | -32.71916 | 116.03740 | 6006 ft | 129 kts | 346° |
| 2026-05-05 08:32 | -32.71021 | 116.03618 | 6003 ft | 130 kts | 0° |
| 2026-05-05 08:32 | -32.70127 | 116.03677 | 6003 ft | 130 kts | 0° |
| 2026-05-05 08:32 | -32.69220 | 116.03715 | 6002 ft | 130 kts | 359° |
| 2026-05-05 08:32 | -32.68310 | 116.03744 | 6005 ft | 131 kts | 359° |
| 2026-05-05 08:33 | -32.67396 | 116.03770 | 6006 ft | 131 kts | 359° |
| 2026-05-05 08:33 | -32.66494 | 116.03795 | 6005 ft | 131 kts | 359° |
| 2026-05-05 08:33 | -32.65580 | 116.03820 | 6006 ft | 130 kts | 359° |
| 2026-05-05 08:33 | -32.64682 | 116.03844 | 6005 ft | 130 kts | 359° |
| 2026-05-05 08:34 | -32.63773 | 116.03868 | 6006 ft | 130 kts | 359° |
| 2026-05-05 08:34 | -32.62863 | 116.03893 | 6006 ft | 131 kts | 359° |
| 2026-05-05 08:34 | -32.61961 | 116.03917 | 6007 ft | 131 kts | 359° |
| 2026-05-05 08:34 | -32.61039 | 116.03941 | 6007 ft | 132 kts | 359° |
| 2026-05-05 08:35 | -32.60128 | 116.03966 | 6007 ft | 132 kts | 359° |
| 2026-05-05 08:35 | -32.59204 | 116.03991 | 6009 ft | 132 kts | 359° |
| 2026-05-05 08:35 | -32.58294 | 116.04015 | 6009 ft | 131 kts | 359° |
| 2026-05-05 08:35 | -32.57375 | 116.04040 | 6009 ft | 132 kts | 359° |
| 2026-05-05 08:36 | -32.56455 | 116.04064 | 6009 ft | 131 kts | 359° |
| 2026-05-05 08:36 | -32.55550 | 116.04089 | 6008 ft | 131 kts | 359° |
| 2026-05-05 08:36 | -32.54646 | 116.04113 | 6006 ft | 131 kts | 359° |
| 2026-05-05 08:36 | -32.53730 | 116.04137 | 6007 ft | 131 kts | 359° |
| 2026-05-05 08:37 | -32.52827 | 116.04162 | 6007 ft | 131 kts | 359° |
| 2026-05-05 08:37 | -32.51915 | 116.04186 | 6007 ft | 131 kts | 359° |
| 2026-05-05 08:37 | -32.51032 | 116.04210 | 5945 ft | 126 kts | 359° |
| 2026-05-05 08:37 | -32.50164 | 116.04233 | 5816 ft | 125 kts | 359° |
| 2026-05-05 08:38 | -32.49294 | 116.04256 | 5671 ft | 124 kts | 359° |
| 2026-05-05 08:38 | -32.48442 | 116.04279 | 5532 ft | 123 kts | 359° |
| 2026-05-05 08:38 | -32.47584 | 116.04301 | 5395 ft | 122 kts | 359° |
| 2026-05-05 08:38 | -32.46742 | 116.04324 | 5263 ft | 122 kts | 359° |
| 2026-05-05 08:39 | -32.45893 | 116.04346 | 5134 ft | 122 kts | 359° |
| 2026-05-05 08:39 | -32.45044 | 116.04369 | 5007 ft | 121 kts | 359° |
| 2026-05-05 08:39 | -32.44200 | 116.04392 | 4877 ft | 121 kts | 359° |
| 2026-05-05 08:39 | -32.43365 | 116.04414 | 4744 ft | 121 kts | 359° |
| 2026-05-05 08:40 | -32.42523 | 116.04436 | 4610 ft | 120 kts | 359° |
| 2026-05-05 08:40 | -32.41970 | 116.04451 | 4524 ft | 120 kts | 359° |
| 2026-05-05 08:40 | -32.41134 | 116.04473 | 4398 ft | 120 kts | 359° |
| 2026-05-05 08:40 | -32.40030 | 116.04503 | 4230 ft | 119 kts | 359° |
| 2026-05-05 08:41 | -32.39199 | 116.04525 | 4104 ft | 118 kts | 359° |
| 2026-05-05 08:41 | -32.38373 | 116.04547 | 3981 ft | 118 kts | 359° |
| 2026-05-05 08:41 | -32.37558 | 116.04569 | 3860 ft | 118 kts | 359° |
| 2026-05-05 08:41 | -32.36738 | 116.04591 | 3731 ft | 118 kts | 359° |
| 2026-05-05 08:42 | -32.36190 | 116.04605 | 3640 ft | 118 kts | 359° |
| 2026-05-05 08:42 | -32.35367 | 116.04627 | 3510 ft | 117 kts | 359° |
| 2026-05-05 08:42 | -32.34598 | 116.04648 | 3494 ft | 107 kts | 358° |
| 2026-05-05 08:42 | -32.33868 | 116.04667 | 3488 ft | 102 kts | 358° |
| 2026-05-05 08:43 | -32.33171 | 116.04685 | 3489 ft | 100 kts | 358° |
| 2026-05-05 08:43 | -32.32262 | 116.04709 | 3493 ft | 97 kts | 358° |
| 2026-05-05 08:43 | -32.31805 | 116.04721 | 3491 ft | 96 kts | 358° |
| 2026-05-05 08:43 | -32.31148 | 116.04738 | 3490 ft | 96 kts | 358° |
| 2026-05-05 08:44 | -32.30471 | 116.04756 | 3497 ft | 97 kts | 358° |
| 2026-05-05 08:44 | -32.29799 | 116.04774 | 3491 ft | 97 kts | 358° |
| 2026-05-05 08:44 | -32.29120 | 116.04792 | 3491 ft | 97 kts | 358° |
| 2026-05-05 08:44 | -32.28440 | 116.04810 | 3501 ft | 98 kts | 358° |
| 2026-05-05 08:45 | -32.27767 | 116.04828 | 3497 ft | 98 kts | 358° |
| 2026-05-05 08:45 | -32.27083 | 116.04848 | 3496 ft | 97 kts | 359° |
| 2026-05-05 08:45 | -32.26405 | 116.04880 | 3489 ft | 97 kts | 360° |
| 2026-05-05 08:45 | -32.25744 | 116.05007 | 3484 ft | 97 kts | 9° |
| 2026-05-05 08:46 | -32.25076 | 116.05158 | 3490 ft | 97 kts | 7° |
| 2026-05-05 08:46 | -32.24409 | 116.05280 | 3501 ft | 97 kts | 5° |
| 2026-05-05 08:46 | -32.23747 | 116.05382 | 3496 ft | 97 kts | 3° |
| 2026-05-05 08:46 | -32.23071 | 116.05460 | 3506 ft | 96 kts | 1° |
| 2026-05-05 08:47 | -32.22404 | 116.05495 | 3524 ft | 95 kts | 359° |
| 2026-05-05 08:47 | -32.21749 | 116.05543 | 3526 ft | 95 kts | 2° |
| 2026-05-05 08:47 | -32.21100 | 116.05624 | 3533 ft | 91 kts | 3° |
| 2026-05-05 08:47 | -32.20481 | 116.05714 | 3485 ft | 91 kts | 4° |
| 2026-05-05 08:48 | -32.19847 | 116.05809 | 3396 ft | 91 kts | 4° |
| 2026-05-05 08:48 | -32.19224 | 116.05905 | 3307 ft | 91 kts | 5° |
| 2026-05-05 08:48 | -32.18592 | 116.06000 | 3233 ft | 90 kts | 0° |
| 2026-05-05 08:48 | -32.18013 | 116.05800 | 3140 ft | 88 kts | 317° |
| 2026-05-05 08:49 | -32.17678 | 116.05215 | 3095 ft | 85 kts | 298° |
| 2026-05-05 08:49 | -32.17394 | 116.04601 | 3024 ft | 86 kts | 296° |
| 2026-05-05 08:49 | -32.17124 | 116.03970 | 2924 ft | 87 kts | 294° |
| 2026-05-05 08:49 | -32.16865 | 116.03326 | 2832 ft | 86 kts | 293° |
| 2026-05-05 08:50 | -32.16639 | 116.02672 | 2740 ft | 86 kts | 290° |
| 2026-05-05 08:50 | -32.16433 | 116.02002 | 2643 ft | 87 kts | 289° |
| 2026-05-05 08:50 | -32.16185 | 116.01358 | 2538 ft | 88 kts | 294° |
| 2026-05-05 08:50 | -32.15905 | 116.00710 | 2417 ft | 89 kts | 297° |
| 2026-05-05 08:51 | -32.15607 | 116.00073 | 2299 ft | 88 kts | 298° |
| 2026-05-05 08:51 | -32.15314 | 115.99447 | 2164 ft | 88 kts | 297° |
| 2026-05-05 08:51 | -32.15023 | 115.98820 | 2036 ft | 88 kts | 297° |
| 2026-05-05 08:51 | -32.14725 | 115.98189 | 1894 ft | 88 kts | 298° |
| 2026-05-05 08:52 | -32.14423 | 115.97561 | 1765 ft | 86 kts | 297° |
| 2026-05-05 08:52 | -32.14144 | 115.96957 | 1640 ft | 83 kts | 296° |
| 2026-05-05 08:52 | -32.13880 | 115.96341 | 1488 ft | 84 kts | 295° |
| 2026-05-05 08:52 | -32.13607 | 115.95741 | 1360 ft | 84 kts | 297° |
| 2026-05-05 08:53 | -32.13344 | 115.95129 | 1227 ft | 83 kts | 294° |
| 2026-05-05 08:53 | -32.13106 | 115.94509 | 1082 ft | 83 kts | 293° |
| 2026-05-05 08:53 | -32.12850 | 115.93910 | 1017 ft | 80 kts | 296° |
| 2026-05-05 08:53 | -32.12603 | 115.93322 | 942 ft | 80 kts | 295° |
| 2026-05-05 08:54 | -32.12316 | 115.92749 | 835 ft | 84 kts | 300° |
| 2026-05-05 08:54 | -32.12022 | 115.92154 | 728 ft | 82 kts | 296° |
| 2026-05-05 08:54 | -32.11771 | 115.91562 | 619 ft | 81 kts | 294° |
| 2026-05-05 08:54 | -32.11508 | 115.90995 | 513 ft | 73 kts | 299° |
| 2026-05-05 08:55 | -32.11265 | 115.90498 | 431 ft | 68 kts | 295° |
| 2026-05-05 08:55 | -32.11065 | 115.89991 | 375 ft | 68 kts | 292° |
| 2026-05-05 08:55 | -32.10862 | 115.89478 | 282 ft | 70 kts | 290° |
| 2026-05-05 08:55 | -32.10654 | 115.88949 | 167 ft | 71 kts | 292° |
| 2026-05-05 08:56 | -32.10458 | 115.88441 | 102 ft | 59 kts | 294° |
| 2026-05-05 08:56 | -32.10321 | 115.88094 | 100 ft | 37 kts | 297° |
| 2026-05-05 08:56 | -32.10210 | 115.87813 | 98 ft | 41 kts | 292° |
| 2026-05-05 08:56 | -32.10099 | 115.87516 | 97 ft | 35 kts | 293° |
| 2026-05-05 08:57 | -32.10025 | 115.87336 | 97 ft | 14 kts | 300° |
| 2026-05-05 08:57 | -32.09966 | 115.87322 | 98 ft | 9 kts | 54° |
| 2026-05-05 08:57 | -32.09933 | 115.87371 | 99 ft | 7 kts | 51° |
| 2026-05-05 08:57 | -32.09898 | 115.87401 | 99 ft | 6 kts | 15° |
| 2026-05-05 08:58 | -32.09851 | 115.87399 | 99 ft | 8 kts | 344° |
| 2026-05-05 08:58 | -32.09836 | 115.87356 | 99 ft | 7 kts | 266° |
| 2026-05-05 08:58 | -32.09824 | 115.87300 | 99 ft | 7 kts | 256° |
| 2026-05-05 08:58 | -32.09840 | 115.87292 | 99 ft | 3 kts | 127° |
| 2026-05-05 08:59 | -32.09845 | 115.87305 | 99 ft | 0 kts | 113° |